Trelew, Argentina
Current Conditions -  °F | °C
As of 9:00 AM on Thursday 18 Dec 2014 (Local Time) from SAVC Reporting Station
Clear Clear  
Wind Chill: 63°   Ceiling: Unl
Heat Index: 63°   Visibility: 6mi
Dew Point: 37°   Wind: 39mph
Humidity: 39%   Direction: 290°WNW
Pressure: 29.38"   Gusts: 60mph
Location:  43.25°S, 65.3°W
Report Text: SAVC 181200Z 29034G52KT CAVOK 17/03 Q0995
Loading
Personal Weather Stations






























Interactive Weather Map New forecast layout! Learn more

10-Day Weather Forecast

Advertisements
Track Severe Weather on mobile